sensor_id;sensor_type;location;lat;lon;timestamp;P1;durP1;ratioP1;P2;durP2;ratioP2
19609;SDS011;9952;47.122;-1.638;2024-01-11T00:01:00;43.13;;;19.43;;
19609;SDS011;9952;47.122;-1.638;2024-01-11T00:05:40;46.00;;;20.47;;
19609;SDS011;9952;47.122;-1.638;2024-01-11T00:10:22;47.63;;;21.43;;
19609;SDS011;9952;47.122;-1.638;2024-01-11T00:15:03;37.17;;;15.70;;
19609;SDS011;9952;47.122;-1.638;2024-01-11T00:19:44;44.97;;;21.00;;
19609;SDS011;9952;47.122;-1.638;2024-01-11T00:24:24;46.77;;;20.80;;
19609;SDS011;9952;47.122;-1.638;2024-01-11T00:29:05;46.13;;;21.63;;
19609;SDS011;9952;47.122;-1.638;2024-01-11T00:33:47;48.07;;;20.83;;
19609;SDS011;9952;47.122;-1.638;2024-01-11T00:38:27;44.07;;;21.33;;
19609;SDS011;9952;47.122;-1.638;2024-01-11T00:43:08;41.27;;;19.80;;
19609;SDS011;9952;47.122;-1.638;2024-01-11T00:47:48;42.77;;;19.60;;
19609;SDS011;9952;47.122;-1.638;2024-01-11T00:52:29;48.87;;;21.83;;
19609;SDS011;9952;47.122;-1.638;2024-01-11T00:57:10;45.53;;;21.40;;
19609;SDS011;9952;47.122;-1.638;2024-01-11T01:01:50;46.00;;;20.63;;
19609;SDS011;9952;47.122;-1.638;2024-01-11T01:06:31;46.17;;;21.83;;
19609;SDS011;9952;47.122;-1.638;2024-01-11T01:11:12;46.17;;;20.70;;
19609;SDS011;9952;47.122;-1.638;2024-01-11T01:15:52;48.37;;;20.63;;
19609;SDS011;9952;47.122;-1.638;2024-01-11T01:20:33;49.47;;;22.53;;
19609;SDS011;9952;47.122;-1.638;2024-01-11T01:25:14;48.87;;;21.33;;
19609;SDS011;9952;47.122;-1.638;2024-01-11T01:29:54;49.63;;;22.77;;
19609;SDS011;9952;47.122;-1.638;2024-01-11T01:34:35;43.93;;;20.10;;
19609;SDS011;9952;47.122;-1.638;2024-01-11T01:39:16;43.53;;;21.20;;
19609;SDS011;9952;47.122;-1.638;2024-01-11T01:43:56;44.80;;;21.80;;
19609;SDS011;9952;47.122;-1.638;2024-01-11T01:48:37;45.27;;;20.57;;
19609;SDS011;9952;47.122;-1.638;2024-01-11T01:53:19;45.33;;;21.40;;
19609;SDS011;9952;47.122;-1.638;2024-01-11T01:58:00;41.70;;;20.37;;
19609;SDS011;9952;47.122;-1.638;2024-01-11T02:02:44;47.17;;;21.07;;
19609;SDS011;9952;47.122;-1.638;2024-01-11T02:07:25;46.37;;;20.47;;
19609;SDS011;9952;47.122;-1.638;2024-01-11T02:12:06;45.53;;;21.17;;
19609;SDS011;9952;47.122;-1.638;2024-01-11T02:16:50;42.87;;;20.57;;
19609;SDS011;9952;47.122;-1.638;2024-01-11T02:21:31;48.27;;;22.03;;
19609;SDS011;9952;47.122;-1.638;2024-01-11T02:26:14;45.13;;;20.57;;
19609;SDS011;9952;47.122;-1.638;2024-01-11T02:30:55;42.20;;;20.80;;
19609;SDS011;9952;47.122;-1.638;2024-01-11T02:35:35;43.40;;;21.97;;
19609;SDS011;9952;47.122;-1.638;2024-01-11T02:40:19;44.77;;;20.93;;
19609;SDS011;9952;47.122;-1.638;2024-01-11T02:45:00;44.47;;;22.10;;
19609;SDS011;9952;47.122;-1.638;2024-01-11T02:49:43;43.80;;;20.83;;
19609;SDS011;9952;47.122;-1.638;2024-01-11T02:54:23;43.07;;;19.37;;
19609;SDS011;9952;47.122;-1.638;2024-01-11T02:59:04;49.30;;;21.53;;
19609;SDS011;9952;47.122;-1.638;2024-01-11T03:03:45;44.93;;;20.03;;
19609;SDS011;9952;47.122;-1.638;2024-01-11T03:08:27;46.73;;;20.10;;
19609;SDS011;9952;47.122;-1.638;2024-01-11T03:13:07;46.40;;;20.73;;
19609;SDS011;9952;47.122;-1.638;2024-01-11T03:17:48;42.73;;;20.53;;
19609;SDS011;9952;47.122;-1.638;2024-01-11T03:22:28;40.10;;;18.30;;
19609;SDS011;9952;47.122;-1.638;2024-01-11T03:27:09;45.00;;;20.47;;
19609;SDS011;9952;47.122;-1.638;2024-01-11T03:31:50;46.27;;;20.20;;
19609;SDS011;9952;47.122;-1.638;2024-01-11T03:36:30;40.80;;;19.10;;
19609;SDS011;9952;47.122;-1.638;2024-01-11T03:41:11;42.93;;;20.30;;
19609;SDS011;9952;47.122;-1.638;2024-01-11T03:45:51;38.63;;;19.07;;
19609;SDS011;9952;47.122;-1.638;2024-01-11T03:50:32;41.07;;;19.97;;
19609;SDS011;9952;47.122;-1.638;2024-01-11T03:55:13;44.37;;;21.07;;
19609;SDS011;9952;47.122;-1.638;2024-01-11T03:59:54;43.97;;;20.83;;
19609;SDS011;9952;47.122;-1.638;2024-01-11T04:04:34;43.87;;;20.97;;
19609;SDS011;9952;47.122;-1.638;2024-01-11T04:09:15;46.50;;;20.13;;
19609;SDS011;9952;47.122;-1.638;2024-01-11T04:13:56;49.97;;;21.47;;
19609;SDS011;9952;47.122;-1.638;2024-01-11T04:18:36;44.57;;;19.97;;
19609;SDS011;9952;47.122;-1.638;2024-01-11T04:23:17;43.43;;;20.73;;
19609;SDS011;9952;47.122;-1.638;2024-01-11T04:27:57;42.13;;;19.13;;
19609;SDS011;9952;47.122;-1.638;2024-01-11T04:32:38;36.03;;;16.57;;
19609;SDS011;9952;47.122;-1.638;2024-01-11T04:37:19;36.53;;;17.73;;
19609;SDS011;9952;47.122;-1.638;2024-01-11T04:41:59;40.40;;;19.07;;
19609;SDS011;9952;47.122;-1.638;2024-01-11T04:46:43;43.37;;;20.13;;
19609;SDS011;9952;47.122;-1.638;2024-01-11T04:51:24;39.33;;;18.37;;
19609;SDS011;9952;47.122;-1.638;2024-01-11T04:56:06;44.73;;;19.83;;
19609;SDS011;9952;47.122;-1.638;2024-01-11T05:00:48;38.90;;;19.60;;
19609;SDS011;9952;47.122;-1.638;2024-01-11T05:05:29;41.10;;;20.37;;
19609;SDS011;9952;47.122;-1.638;2024-01-11T05:10:10;40.47;;;20.07;;
19609;SDS011;9952;47.122;-1.638;2024-01-11T05:14:50;40.33;;;19.00;;
19609;SDS011;9952;47.122;-1.638;2024-01-11T05:19:31;39.93;;;19.17;;
19609;SDS011;9952;47.122;-1.638;2024-01-11T05:24:12;44.00;;;19.77;;
19609;SDS011;9952;47.122;-1.638;2024-01-11T05:28:52;40.80;;;19.20;;
19609;SDS011;9952;47.122;-1.638;2024-01-11T05:33:33;33.70;;;14.37;;
19609;SDS011;9952;47.122;-1.638;2024-01-11T05:38:14;47.57;;;20.00;;
19609;SDS011;9952;47.122;-1.638;2024-01-11T05:42:54;42.60;;;19.23;;
19609;SDS011;9952;47.122;-1.638;2024-01-11T05:47:35;41.47;;;19.27;;
19609;SDS011;9952;47.122;-1.638;2024-01-11T05:52:15;42.10;;;20.53;;
19609;SDS011;9952;47.122;-1.638;2024-01-11T05:56:56;39.00;;;18.70;;
19609;SDS011;9952;47.122;-1.638;2024-01-11T06:01:41;44.07;;;21.07;;
19609;SDS011;9952;47.122;-1.638;2024-01-11T06:06:25;44.70;;;18.90;;
19609;SDS011;9952;47.122;-1.638;2024-01-11T06:11:05;42.27;;;19.13;;
19609;SDS011;9952;47.122;-1.638;2024-01-11T06:15:47;45.90;;;19.67;;
19609;SDS011;9952;47.122;-1.638;2024-01-11T06:20:28;40.70;;;19.70;;
19609;SDS011;9952;47.122;-1.638;2024-01-11T06:25:08;44.20;;;19.87;;
19609;SDS011;9952;47.122;-1.638;2024-01-11T06:29:49;39.60;;;18.97;;
19609;SDS011;9952;47.122;-1.638;2024-01-11T06:34:30;41.80;;;19.90;;
19609;SDS011;9952;47.122;-1.638;2024-01-11T06:39:10;39.90;;;18.77;;
19609;SDS011;9952;47.122;-1.638;2024-01-11T06:43:52;40.93;;;19.40;;
19609;SDS011;9952;47.122;-1.638;2024-01-11T06:48:33;41.00;;;19.00;;
19609;SDS011;9952;47.122;-1.638;2024-01-11T06:53:14;46.77;;;20.10;;
19609;SDS011;9952;47.122;-1.638;2024-01-11T06:57:54;42.33;;;18.83;;
19609;SDS011;9952;47.122;-1.638;2024-01-11T07:02:35;41.40;;;19.70;;
19609;SDS011;9952;47.122;-1.638;2024-01-11T07:07:15;41.03;;;19.97;;
19609;SDS011;9952;47.122;-1.638;2024-01-11T07:11:56;42.60;;;19.67;;
19609;SDS011;9952;47.122;-1.638;2024-01-11T07:16:37;40.47;;;19.17;;
19609;SDS011;9952;47.122;-1.638;2024-01-11T07:21:24;45.63;;;19.47;;
19609;SDS011;9952;47.122;-1.638;2024-01-11T07:26:11;46.23;;;20.57;;
19609;SDS011;9952;47.122;-1.638;2024-01-11T07:30:52;36.67;;;17.20;;
19609;SDS011;9952;47.122;-1.638;2024-01-11T07:35:33;44.90;;;19.63;;
19609;SDS011;9952;47.122;-1.638;2024-01-11T07:40:14;45.63;;;19.77;;
19609;SDS011;9952;47.122;-1.638;2024-01-11T07:44:55;39.73;;;19.10;;
19609;SDS011;9952;47.122;-1.638;2024-01-11T07:49:35;37.33;;;17.60;;
19609;SDS011;9952;47.122;-1.638;2024-01-11T07:54:16;41.10;;;19.17;;
19609;SDS011;9952;47.122;-1.638;2024-01-11T07:58:57;40.60;;;18.97;;
19609;SDS011;9952;47.122;-1.638;2024-01-11T08:03:37;39.03;;;19.30;;
19609;SDS011;9952;47.122;-1.638;2024-01-11T08:08:18;39.97;;;18.97;;
19609;SDS011;9952;47.122;-1.638;2024-01-11T08:12:59;39.67;;;17.17;;
19609;SDS011;9952;47.122;-1.638;2024-01-11T08:17:44;43.37;;;19.20;;
19609;SDS011;9952;47.122;-1.638;2024-01-11T08:22:25;46.60;;;20.10;;
19609;SDS011;9952;47.122;-1.638;2024-01-11T08:27:07;41.87;;;18.93;;
19609;SDS011;9952;47.122;-1.638;2024-01-11T08:31:48;44.17;;;19.13;;
19609;SDS011;9952;47.122;-1.638;2024-01-11T08:36:32;40.47;;;19.50;;
19609;SDS011;9952;47.122;-1.638;2024-01-11T08:41:14;46.30;;;19.90;;
19609;SDS011;9952;47.122;-1.638;2024-01-11T08:45:54;36.37;;;17.43;;
19609;SDS011;9952;47.122;-1.638;2024-01-11T08:50:35;42.53;;;19.97;;
19609;SDS011;9952;47.122;-1.638;2024-01-11T08:55:16;42.10;;;19.17;;
19609;SDS011;9952;47.122;-1.638;2024-01-11T08:59:56;44.77;;;20.93;;
19609;SDS011;9952;47.122;-1.638;2024-01-11T09:04:37;46.73;;;20.43;;
19609;SDS011;9952;47.122;-1.638;2024-01-11T09:09:18;40.73;;;20.10;;
19609;SDS011;9952;47.122;-1.638;2024-01-11T09:13:58;34.30;;;17.17;;
19609;SDS011;9952;47.122;-1.638;2024-01-11T09:18:39;47.93;;;21.40;;
19609;SDS011;9952;47.122;-1.638;2024-01-11T09:23:20;44.33;;;19.43;;
19609;SDS011;9952;47.122;-1.638;2024-01-11T09:28:00;43.53;;;19.73;;
19609;SDS011;9952;47.122;-1.638;2024-01-11T09:32:41;44.33;;;20.87;;
19609;SDS011;9952;47.122;-1.638;2024-01-11T09:37:22;40.70;;;19.00;;
19609;SDS011;9952;47.122;-1.638;2024-01-11T09:46:47;35.53;;;18.37;;
19609;SDS011;9952;47.122;-1.638;2024-01-11T09:51:28;39.73;;;19.90;;
19609;SDS011;9952;47.122;-1.638;2024-01-11T09:56:12;37.87;;;17.97;;
19609;SDS011;9952;47.122;-1.638;2024-01-11T10:00:53;40.40;;;19.93;;
19609;SDS011;9952;47.122;-1.638;2024-01-11T10:05:35;34.97;;;17.00;;
19609;SDS011;9952;47.122;-1.638;2024-01-11T10:10:17;42.40;;;20.90;;
19609;SDS011;9952;47.122;-1.638;2024-01-11T10:15:04;42.10;;;21.07;;
19609;SDS011;9952;47.122;-1.638;2024-01-11T10:19:47;43.57;;;19.47;;
19609;SDS011;9952;47.122;-1.638;2024-01-11T10:24:28;50.93;;;21.77;;
19609;SDS011;9952;47.122;-1.638;2024-01-11T10:29:08;46.30;;;21.50;;
19609;SDS011;9952;47.122;-1.638;2024-01-11T10:33:50;40.53;;;20.17;;
19609;SDS011;9952;47.122;-1.638;2024-01-11T10:38:31;42.97;;;19.80;;
19609;SDS011;9952;47.122;-1.638;2024-01-11T10:43:19;45.93;;;21.67;;
19609;SDS011;9952;47.122;-1.638;2024-01-11T10:48:02;45.20;;;20.83;;
19609;SDS011;9952;47.122;-1.638;2024-01-11T10:52:49;42.30;;;19.30;;
19609;SDS011;9952;47.122;-1.638;2024-01-11T10:57:41;40.07;;;20.10;;
19609;SDS011;9952;47.122;-1.638;2024-01-11T11:02:22;40.27;;;19.83;;
19609;SDS011;9952;47.122;-1.638;2024-01-11T11:07:03;42.40;;;20.23;;
19609;SDS011;9952;47.122;-1.638;2024-01-11T11:11:47;36.47;;;19.20;;
19609;SDS011;9952;47.122;-1.638;2024-01-11T11:16:29;33.77;;;17.87;;
19609;SDS011;9952;47.122;-1.638;2024-01-11T11:21:10;36.07;;;18.87;;
19609;SDS011;9952;47.122;-1.638;2024-01-11T11:25:53;37.30;;;16.97;;
19609;SDS011;9952;47.122;-1.638;2024-01-11T11:30:38;39.27;;;19.03;;
19609;SDS011;9952;47.122;-1.638;2024-01-11T11:35:24;40.13;;;18.87;;
19609;SDS011;9952;47.122;-1.638;2024-01-11T11:40:05;36.63;;;18.53;;
19609;SDS011;9952;47.122;-1.638;2024-01-11T11:44:48;33.83;;;16.57;;
19609;SDS011;9952;47.122;-1.638;2024-01-11T11:54:41;36.80;;;16.77;;
19609;SDS011;9952;47.122;-1.638;2024-01-11T11:59:23;33.20;;;17.63;;
19609;SDS011;9952;47.122;-1.638;2024-01-11T12:04:05;36.67;;;15.80;;
19609;SDS011;9952;47.122;-1.638;2024-01-11T12:08:48;35.33;;;17.47;;
19609;SDS011;9952;47.122;-1.638;2024-01-11T12:13:29;32.10;;;17.10;;
19609;SDS011;9952;47.122;-1.638;2024-01-11T12:18:12;34.20;;;17.63;;
19609;SDS011;9952;47.122;-1.638;2024-01-11T12:22:53;33.87;;;17.00;;
19609;SDS011;9952;47.122;-1.638;2024-01-11T12:27:34;31.27;;;16.27;;
19609;SDS011;9952;47.122;-1.638;2024-01-11T12:32:15;32.10;;;17.17;;
19609;SDS011;9952;47.122;-1.638;2024-01-11T12:36:56;32.20;;;16.20;;
19609;SDS011;9952;47.122;-1.638;2024-01-11T12:41:41;32.93;;;16.40;;
19609;SDS011;9952;47.122;-1.638;2024-01-11T12:46:22;29.90;;;16.00;;
19609;SDS011;9952;47.122;-1.638;2024-01-11T12:51:03;28.27;;;14.10;;
19609;SDS011;9952;47.122;-1.638;2024-01-11T12:55:45;28.50;;;15.40;;
19609;SDS011;9952;47.122;-1.638;2024-01-11T13:00:29;28.27;;;15.10;;
19609;SDS011;9952;47.122;-1.638;2024-01-11T13:05:09;27.83;;;14.20;;
19609;SDS011;9952;47.122;-1.638;2024-01-11T13:09:50;29.30;;;15.30;;
19609;SDS011;9952;47.122;-1.638;2024-01-11T13:14:31;29.77;;;14.87;;
19609;SDS011;9952;47.122;-1.638;2024-01-11T13:19:13;26.53;;;14.07;;
19609;SDS011;9952;47.122;-1.638;2024-01-11T13:23:54;28.20;;;14.53;;
19609;SDS011;9952;47.122;-1.638;2024-01-11T13:28:34;29.13;;;14.87;;
19609;SDS011;9952;47.122;-1.638;2024-01-11T13:33:15;23.47;;;12.33;;
19609;SDS011;9952;47.122;-1.638;2024-01-11T13:37:57;25.67;;;13.43;;
19609;SDS011;9952;47.122;-1.638;2024-01-11T13:42:38;22.90;;;12.73;;
19609;SDS011;9952;47.122;-1.638;2024-01-11T13:47:18;22.57;;;13.07;;
19609;SDS011;9952;47.122;-1.638;2024-01-11T13:51:59;22.57;;;11.97;;
19609;SDS011;9952;47.122;-1.638;2024-01-11T13:56:39;25.37;;;12.57;;
19609;SDS011;9952;47.122;-1.638;2024-01-11T14:01:20;24.30;;;12.77;;
19609;SDS011;9952;47.122;-1.638;2024-01-11T14:06:01;21.03;;;12.37;;
19609;SDS011;9952;47.122;-1.638;2024-01-11T14:10:42;24.40;;;12.70;;
19609;SDS011;9952;47.122;-1.638;2024-01-11T14:15:24;24.53;;;13.40;;
19609;SDS011;9952;47.122;-1.638;2024-01-11T14:20:05;23.37;;;12.87;;
19609;SDS011;9952;47.122;-1.638;2024-01-11T14:24:52;23.40;;;12.73;;
19609;SDS011;9952;47.122;-1.638;2024-01-11T14:29:33;23.53;;;12.87;;
19609;SDS011;9952;47.122;-1.638;2024-01-11T14:34:14;22.43;;;12.30;;
19609;SDS011;9952;47.122;-1.638;2024-01-11T14:38:54;22.23;;;11.43;;
19609;SDS011;9952;47.122;-1.638;2024-01-11T14:43:35;22.10;;;11.90;;
19609;SDS011;9952;47.122;-1.638;2024-01-11T14:48:16;27.73;;;11.83;;
19609;SDS011;9952;47.122;-1.638;2024-01-11T14:52:57;19.17;;;10.17;;
19609;SDS011;9952;47.122;-1.638;2024-01-11T14:57:41;20.77;;;11.33;;
19609;SDS011;9952;47.122;-1.638;2024-01-11T15:02:21;17.80;;;10.90;;
19609;SDS011;9952;47.122;-1.638;2024-01-11T15:07:02;16.23;;;10.30;;
19609;SDS011;9952;47.122;-1.638;2024-01-11T15:11:43;19.10;;;10.97;;
19609;SDS011;9952;47.122;-1.638;2024-01-11T15:16:24;21.97;;;11.70;;
19609;SDS011;9952;47.122;-1.638;2024-01-11T15:21:06;18.83;;;10.20;;
19609;SDS011;9952;47.122;-1.638;2024-01-11T15:25:46;21.43;;;11.27;;
19609;SDS011;9952;47.122;-1.638;2024-01-11T15:30:27;22.07;;;11.80;;
19609;SDS011;9952;47.122;-1.638;2024-01-11T15:35:08;25.57;;;13.40;;
19609;SDS011;9952;47.122;-1.638;2024-01-11T15:39:49;22.60;;;12.10;;
19609;SDS011;9952;47.122;-1.638;2024-01-11T15:44:29;54.70;;;27.87;;
19609;SDS011;9952;47.122;-1.638;2024-01-11T15:49:11;133.20;;;59.00;;
19609;SDS011;9952;47.122;-1.638;2024-01-11T15:53:52;59.53;;;29.00;;
19609;SDS011;9952;47.122;-1.638;2024-01-11T15:58:33;33.73;;;16.73;;
19609;SDS011;9952;47.122;-1.638;2024-01-11T16:03:13;34.10;;;19.10;;
19609;SDS011;9952;47.122;-1.638;2024-01-11T16:07:54;26.70;;;13.83;;
19609;SDS011;9952;47.122;-1.638;2024-01-11T16:12:35;26.80;;;15.77;;
19609;SDS011;9952;47.122;-1.638;2024-01-11T16:17:15;27.27;;;16.37;;
19609;SDS011;9952;47.122;-1.638;2024-01-11T16:21:56;28.80;;;15.30;;
19609;SDS011;9952;47.122;-1.638;2024-01-11T16:26:36;26.43;;;14.33;;
19609;SDS011;9952;47.122;-1.638;2024-01-11T16:31:17;26.13;;;15.07;;
19609;SDS011;9952;47.122;-1.638;2024-01-11T16:35:58;35.40;;;18.67;;
19609;SDS011;9952;47.122;-1.638;2024-01-11T16:40:39;27.73;;;15.90;;
19609;SDS011;9952;47.122;-1.638;2024-01-11T16:45:21;57.40;;;29.00;;
19609;SDS011;9952;47.122;-1.638;2024-01-11T16:50:02;48.20;;;26.23;;
19609;SDS011;9952;47.122;-1.638;2024-01-11T16:54:46;33.60;;;18.67;;
19609;SDS011;9952;47.122;-1.638;2024-01-11T16:59:27;33.07;;;18.07;;
19609;SDS011;9952;47.122;-1.638;2024-01-11T17:04:08;35.03;;;19.67;;
19609;SDS011;9952;47.122;-1.638;2024-01-11T17:08:49;34.60;;;16.87;;
19609;SDS011;9952;47.122;-1.638;2024-01-11T17:13:29;27.13;;;15.50;;
19609;SDS011;9952;47.122;-1.638;2024-01-11T17:18:10;31.70;;;18.47;;
19609;SDS011;9952;47.122;-1.638;2024-01-11T17:22:51;25.60;;;14.13;;
19609;SDS011;9952;47.122;-1.638;2024-01-11T17:27:32;31.77;;;16.40;;
19609;SDS011;9952;47.122;-1.638;2024-01-11T17:32:13;30.00;;;15.47;;
19609;SDS011;9952;47.122;-1.638;2024-01-11T17:36:53;25.37;;;15.03;;
19609;SDS011;9952;47.122;-1.638;2024-01-11T17:41:37;25.80;;;14.77;;
19609;SDS011;9952;47.122;-1.638;2024-01-11T17:46:20;28.60;;;15.53;;
19609;SDS011;9952;47.122;-1.638;2024-01-11T17:51:04;28.60;;;15.37;;
19609;SDS011;9952;47.122;-1.638;2024-01-11T17:55:51;26.80;;;14.67;;
19609;SDS011;9952;47.122;-1.638;2024-01-11T18:00:32;27.33;;;14.20;;
19609;SDS011;9952;47.122;-1.638;2024-01-11T18:05:13;24.43;;;13.47;;
19609;SDS011;9952;47.122;-1.638;2024-01-11T18:09:54;25.47;;;13.80;;
19609;SDS011;9952;47.122;-1.638;2024-01-11T18:14:35;25.43;;;13.17;;
19609;SDS011;9952;47.122;-1.638;2024-01-11T18:19:15;24.53;;;12.73;;
19609;SDS011;9952;47.122;-1.638;2024-01-11T18:23:56;24.80;;;12.73;;
19609;SDS011;9952;47.122;-1.638;2024-01-11T18:28:37;27.27;;;14.87;;
19609;SDS011;9952;47.122;-1.638;2024-01-11T18:33:18;24.53;;;12.17;;
19609;SDS011;9952;47.122;-1.638;2024-01-11T18:37:58;30.93;;;15.90;;
19609;SDS011;9952;47.122;-1.638;2024-01-11T18:42:39;24.07;;;11.87;;
19609;SDS011;9952;47.122;-1.638;2024-01-11T18:47:20;27.67;;;13.37;;
19609;SDS011;9952;47.122;-1.638;2024-01-11T18:52:00;24.77;;;13.47;;
19609;SDS011;9952;47.122;-1.638;2024-01-11T18:56:41;20.27;;;10.20;;
19609;SDS011;9952;47.122;-1.638;2024-01-11T19:01:23;28.93;;;13.70;;
19609;SDS011;9952;47.122;-1.638;2024-01-11T19:06:06;22.43;;;12.07;;
19609;SDS011;9952;47.122;-1.638;2024-01-11T19:10:47;25.47;;;12.73;;
19609;SDS011;9952;47.122;-1.638;2024-01-11T19:15:28;25.30;;;13.53;;
19609;SDS011;9952;47.122;-1.638;2024-01-11T19:20:09;24.10;;;13.00;;
19609;SDS011;9952;47.122;-1.638;2024-01-11T19:24:49;26.70;;;14.27;;
19609;SDS011;9952;47.122;-1.638;2024-01-11T19:29:30;26.83;;;13.67;;
19609;SDS011;9952;47.122;-1.638;2024-01-11T19:34:12;26.53;;;12.83;;
19609;SDS011;9952;47.122;-1.638;2024-01-11T19:38:53;25.93;;;13.50;;
19609;SDS011;9952;47.122;-1.638;2024-01-11T19:43:36;27.60;;;14.70;;
19609;SDS011;9952;47.122;-1.638;2024-01-11T19:48:25;27.67;;;12.97;;
19609;SDS011;9952;47.122;-1.638;2024-01-11T19:53:07;30.53;;;17.13;;
19609;SDS011;9952;47.122;-1.638;2024-01-11T19:57:48;30.83;;;14.33;;
19609;SDS011;9952;47.122;-1.638;2024-01-11T20:02:29;31.73;;;14.30;;
19609;SDS011;9952;47.122;-1.638;2024-01-11T20:07:09;33.13;;;16.27;;
19609;SDS011;9952;47.122;-1.638;2024-01-11T20:11:50;29.63;;;14.80;;
19609;SDS011;9952;47.122;-1.638;2024-01-11T20:16:31;31.67;;;15.00;;
19609;SDS011;9952;47.122;-1.638;2024-01-11T20:21:11;26.37;;;14.47;;
19609;SDS011;9952;47.122;-1.638;2024-01-11T20:25:52;30.50;;;14.57;;
19609;SDS011;9952;47.122;-1.638;2024-01-11T20:30:34;29.23;;;14.57;;
19609;SDS011;9952;47.122;-1.638;2024-01-11T20:35:15;31.70;;;16.03;;
19609;SDS011;9952;47.122;-1.638;2024-01-11T20:39:56;27.90;;;16.10;;
19609;SDS011;9952;47.122;-1.638;2024-01-11T20:44:36;32.63;;;15.37;;
19609;SDS011;9952;47.122;-1.638;2024-01-11T20:49:17;36.17;;;16.10;;
19609;SDS011;9952;47.122;-1.638;2024-01-11T20:53:58;37.37;;;17.77;;
19609;SDS011;9952;47.122;-1.638;2024-01-11T20:58:43;29.30;;;14.93;;
19609;SDS011;9952;47.122;-1.638;2024-01-11T21:03:24;36.37;;;14.23;;
19609;SDS011;9952;47.122;-1.638;2024-01-11T21:08:05;35.07;;;16.03;;
19609;SDS011;9952;47.122;-1.638;2024-01-11T21:12:45;28.13;;;15.13;;
19609;SDS011;9952;47.122;-1.638;2024-01-11T21:17:28;31.90;;;15.30;;
19609;SDS011;9952;47.122;-1.638;2024-01-11T21:22:09;27.10;;;13.80;;
19609;SDS011;9952;47.122;-1.638;2024-01-11T21:26:49;29.37;;;15.33;;
19609;SDS011;9952;47.122;-1.638;2024-01-11T21:31:30;28.27;;;13.77;;
19609;SDS011;9952;47.122;-1.638;2024-01-11T21:36:15;28.37;;;13.90;;
19609;SDS011;9952;47.122;-1.638;2024-01-11T21:41:04;31.63;;;13.80;;
19609;SDS011;9952;47.122;-1.638;2024-01-11T21:45:44;25.03;;;14.20;;
19609;SDS011;9952;47.122;-1.638;2024-01-11T21:50:25;31.70;;;15.90;;
19609;SDS011;9952;47.122;-1.638;2024-01-11T21:55:06;28.27;;;14.53;;
19609;SDS011;9952;47.122;-1.638;2024-01-11T21:59:47;30.57;;;15.13;;
19609;SDS011;9952;47.122;-1.638;2024-01-11T22:04:28;26.50;;;14.00;;
19609;SDS011;9952;47.122;-1.638;2024-01-11T22:09:08;33.13;;;15.07;;
19609;SDS011;9952;47.122;-1.638;2024-01-11T22:13:49;27.60;;;14.03;;
19609;SDS011;9952;47.122;-1.638;2024-01-11T22:18:29;26.13;;;12.70;;
19609;SDS011;9952;47.122;-1.638;2024-01-11T22:23:10;27.93;;;13.93;;
19609;SDS011;9952;47.122;-1.638;2024-01-11T22:27:51;29.90;;;15.13;;
19609;SDS011;9952;47.122;-1.638;2024-01-11T22:32:32;31.53;;;14.93;;
19609;SDS011;9952;47.122;-1.638;2024-01-11T22:37:15;28.63;;;13.80;;
19609;SDS011;9952;47.122;-1.638;2024-01-11T22:41:56;28.90;;;14.43;;
19609;SDS011;9952;47.122;-1.638;2024-01-11T22:46:36;28.60;;;14.10;;
19609;SDS011;9952;47.122;-1.638;2024-01-11T22:51:17;29.57;;;14.57;;
19609;SDS011;9952;47.122;-1.638;2024-01-11T22:55:58;35.27;;;14.23;;
19609;SDS011;9952;47.122;-1.638;2024-01-11T23:00:38;28.47;;;13.47;;
19609;SDS011;9952;47.122;-1.638;2024-01-11T23:05:19;25.50;;;13.97;;
19609;SDS011;9952;47.122;-1.638;2024-01-11T23:10:00;29.43;;;14.53;;
19609;SDS011;9952;47.122;-1.638;2024-01-11T23:14:41;33.23;;;15.60;;
19609;SDS011;9952;47.122;-1.638;2024-01-11T23:19:21;26.80;;;14.40;;
19609;SDS011;9952;47.122;-1.638;2024-01-11T23:24:02;31.00;;;15.00;;
19609;SDS011;9952;47.122;-1.638;2024-01-11T23:28:43;31.23;;;14.70;;
19609;SDS011;9952;47.122;-1.638;2024-01-11T23:33:23;26.40;;;13.77;;
19609;SDS011;9952;47.122;-1.638;2024-01-11T23:38:04;24.80;;;12.67;;
19609;SDS011;9952;47.122;-1.638;2024-01-11T23:42:44;29.60;;;14.73;;
19609;SDS011;9952;47.122;-1.638;2024-01-11T23:47:25;21.83;;;10.87;;
19609;SDS011;9952;47.122;-1.638;2024-01-11T23:52:06;28.33;;;14.67;;
19609;SDS011;9952;47.122;-1.638;2024-01-11T23:56:46;23.63;;;12.73;;
